Time;durP1;ratioP1;P1;durP2;ratioP2;P2;SDS_P1;SDS_P2;PMS_P1;PMS_P2;Temp;Humidity;BMP_temperature;BMP_pressure;BME280_temperature;BME280_humidity;BME280_pressure;Samples;Min_cycle;Max_cycle;Signal;HPM_P1;HPM_P2
2022/09/13 04:30:08;;;;;;;;;5.67;4.00;;;;;;;;6022368;23;46042;31
2022/09/13 04:32:34;;;;;;;;;3.33;3.33;;;;;;;;4965739;28;45452;-63
2022/09/13 04:34:59;;;;;;;;;7.33;4.00;;;;;;;;4975894;28;45324;-63
2022/09/13 04:37:24;;;;;;;;;6.00;4.00;;;;;;;;4979152;28;45320;-63
2022/09/13 04:39:49;;;;;;;;;5.00;3.67;;;;;;;;4978814;28;45475;-62
2022/09/13 04:42:14;;;;;;;;;5.00;5.00;;;;;;;;4975985;28;45571;-63
2022/09/13 04:44:39;;;;;;;;;5.50;4.00;;;;;;;;4974746;28;48494;-63
2022/09/13 04:47:05;;;;;;;;;4.33;3.67;;;;;;;;4977265;28;45562;-64
2022/09/13 04:49:30;;;;;;;;;7.50;5.25;;;;;;;;4973717;28;45605;-64
2022/09/13 04:51:55;;;;;;;;;3.00;3.00;;;;;;;;4977860;28;45463;-64
2022/09/13 04:54:21;;;;;;;;;4.00;4.00;;;;;;;;4975548;28;45415;-64
2022/09/13 04:56:46;;;;;;;;;7.00;7.00;;;;;;;;4974551;28;45345;-64
2022/09/13 04:59:11;;;;;;;;;7.00;5.67;;;;;;;;4975954;28;45379;-64
2022/09/13 05:01:37;;;;;;;;;7.00;6.00;;;;;;;;4976987;28;45438;-63
2022/09/13 05:04:02;;;;;;;;;7.00;5.00;;;;;;;;4973229;28;46094;-63
2022/09/13 05:06:28;;;;;;;;;7.00;5.67;;;;;;;;4975061;28;45471;-64
2022/09/13 05:08:54;;;;;;;;;9.00;9.00;;;;;;;;4979141;28;45487;-64
2022/09/13 05:11:23;;;;;;;;;6.00;5.00;;;;;;;;4977024;28;45602;-65
2022/09/13 05:13:51;;;;;;;;;6.67;6.67;;;;;;;;4973817;28;45441;-64
2022/09/13 05:16:17;;;;;;;;;6.33;5.00;;;;;;;;4978304;28;45432;-64
2022/09/13 05:18:42;;;;;;;;;7.33;7.00;;;;;;;;4976892;28;45487;-64
2022/09/13 05:21:07;;;;;;;;;6.67;6.00;;;;;;;;4978294;28;45532;-64
2022/09/13 05:23:33;;;;;;;;;9.00;7.33;;;;;;;;4975314;28;45350;-64
2022/09/13 05:25:59;;;;;;;;;3.00;2.00;;;;;;;;4968120;28;45522;-64
2022/09/13 05:28:26;;;;;;;;;9.33;7.67;;;;;;;;4974504;28;45659;-64
2022/09/13 05:31:01;;;;;;;;;8.33;7.00;;;;;;;;4980569;28;45563;-64
2022/09/13 05:33:27;;;;;;;;;6.67;4.00;;;;;;;;4996560;28;46558;-64
2022/09/13 05:35:53;;;;;;;;;6.00;6.00;;;;;;;;4997362;28;45494;-64
2022/09/13 05:38:18;;;;;;;;;8.67;7.00;;;;;;;;4998614;28;45221;-64
2022/09/13 05:40:44;;;;;;;;;9.00;7.67;;;;;;;;4994913;28;45261;-64
2022/09/13 05:43:09;;;;;;;;;13.00;8.67;;;;;;;;4997223;28;46246;-65
2022/09/13 05:45:34;;;;;;;;;6.00;5.67;;;;;;;;4999533;28;45572;-64
2022/09/13 05:47:59;;;;;;;;;6.00;6.00;;;;;;;;5012799;28;45569;-64
2022/09/13 05:50:25;;;;;;;;;5.33;5.33;;;;;;;;4994337;28;45221;-64
2022/09/13 05:52:51;;;;;;;;;5.00;5.00;;;;;;;;4992445;28;45649;-65
2022/09/13 05:55:16;;;;;;;;;7.67;6.00;;;;;;;;5000645;28;45957;-64
2022/09/13 05:57:41;;;;;;;;;6.67;5.67;;;;;;;;4992882;28;45716;-64
2022/09/13 06:00:07;;;;;;;;;5.67;5.00;;;;;;;;4997526;28;45858;-65
2022/09/13 06:02:32;;;;;;;;;8.00;7.00;;;;;;;;5005028;28;47931;-66
2022/09/13 06:04:57;;;;;;;;;6.00;6.00;;;;;;;;5000064;28;45379;-64
2022/09/13 06:07:22;;;;;;;;;9.67;7.00;;;;;;;;4988568;28;45699;-66
2022/09/13 06:09:48;;;;;;;;;8.67;7.33;;;;;;;;4987546;28;47448;-65
2022/09/13 06:12:13;;;;;;;;;7.67;6.33;;;;;;;;4994517;28;45597;-66
2022/09/13 06:14:38;;;;;;;;;7.00;7.00;;;;;;;;5011079;28;45469;-65
2022/09/13 06:17:04;;;;;;;;;6.00;6.00;;;;;;;;5001254;28;45718;-65
2022/09/13 06:19:29;;;;;;;;;10.00;8.00;;;;;;;;4999281;28;45543;-65
2022/09/13 06:21:54;;;;;;;;;8.33;8.33;;;;;;;;4990728;28;46195;-65
2022/09/13 06:24:19;;;;;;;;;8.00;7.33;;;;;;;;4992870;28;45420;-64
2022/09/13 06:26:44;;;;;;;;;8.67;6.33;;;;;;;;4996803;28;46006;-63
2022/09/13 06:29:10;;;;;;;;;7.00;7.00;;;;;;;;5004596;28;45338;-63
2022/09/13 06:31:37;;;;;;;;;12.67;8.67;;;;;;;;4997078;28;45596;-63
2022/09/13 06:34:03;;;;;;;;;9.67;8.33;;;;;;;;4998756;28;45412;-64
2022/09/13 06:36:28;;;;;;;;;9.00;9.00;;;;;;;;4998994;28;45578;-64
2022/09/13 06:38:54;;;;;;;;;8.33;7.33;;;;;;;;4997574;28;45349;-64
2022/09/13 06:41:22;;;;;;;;;8.33;8.00;;;;;;;;4990451;28;46809;-64
2022/09/13 06:43:51;;;;;;;;;10.00;9.00;;;;;;;;4989806;28;45750;-64
2022/09/13 06:46:17;;;;;;;;;8.67;5.00;;;;;;;;4995224;28;45583;-64
2022/09/13 06:48:43;;;;;;;;;16.00;11.00;;;;;;;;4997543;28;45551;-64
2022/09/13 06:51:11;;;;;;;;;11.00;8.67;;;;;;;;4996977;28;45538;-64
2022/09/13 06:53:36;;;;;;;;;6.67;5.00;;;;;;;;4998572;28;45787;-65
2022/09/13 06:56:21;;;;;;;;;8.00;5.33;;;;;;;;4995885;28;45469;-65
2022/09/13 06:58:48;;;;;;;;;8.00;8.00;;;;;;;;4998202;28;45727;-65
2022/09/13 07:01:24;;;;;;;;;6.50;5.75;;;;;;;;4988149;28;46189;-64
2022/09/13 07:03:51;;;;;;;;;7.25;6.25;;;;;;;;4993807;28;45540;-65
2022/09/13 07:06:20;;;;;;;;;6.75;5.50;;;;;;;;4997965;28;45645;-65
2022/09/13 07:08:46;;;;;;;;;5.75;5.75;;;;;;;;4995207;28;45621;-63
2022/09/13 07:11:12;;;;;;;;;5.50;5.50;;;;;;;;4994325;28;46060;-64
2022/09/13 07:13:38;;;;;;;;;7.25;6.00;;;;;;;;5001472;28;45913;-63
2022/09/13 07:16:04;;;;;;;;;4.25;4.25;;;;;;;;5001214;28;45526;-63
2022/09/13 07:18:30;;;;;;;;;4.75;3.75;;;;;;;;4998058;28;45826;-62
2022/09/13 07:21:03;;;;;;;;;4.00;4.00;;;;;;;;5004443;28;45544;-63
2022/09/13 07:23:29;;;;;;;;;4.00;3.00;;;;;;;;4997423;28;45502;-62
2022/09/13 07:26:00;;;;;;;;;3.75;3.75;;;;;;;;4999398;28;45500;-63
2022/09/13 07:28:25;;;;;;;;;4.00;4.00;;;;;;;;4998828;28;45444;-63
2022/09/13 07:30:50;;;;;;;;;4.25;4.25;;;;;;;;4995131;28;46457;-63
2022/09/13 07:33:16;;;;;;;;;4.75;4.75;;;;;;;;4998688;28;45353;-63
2022/09/13 07:35:41;;;;;;;;;5.75;4.25;;;;;;;;5000698;28;45852;-63
2022/09/13 07:38:06;;;;;;;;;7.50;6.25;;;;;;;;5005261;28;45752;-62
2022/09/13 07:40:34;;;;;;;;;4.00;4.00;;;;;;;;4991749;28;46930;-65
2022/09/13 07:42:59;;;;;;;;;5.00;5.00;;;;;;;;4996619;28;45483;-65
2022/09/13 07:45:24;;;;;;;;;5.00;5.00;;;;;;;;4996701;28;45372;-65
2022/09/13 07:47:53;;;;;;;;;6.75;6.75;;;;;;;;5006405;28;45518;-65
2022/09/13 07:50:18;;;;;;;;;5.00;5.00;;;;;;;;4996283;28;47072;-63
2022/09/13 07:52:43;;;;;;;;;3.50;3.50;;;;;;;;4996030;28;45213;-62
2022/09/13 07:55:08;;;;;;;;;4.00;4.00;;;;;;;;4992056;28;45434;-65
2022/09/13 07:57:34;;;;;;;;;6.67;5.00;;;;;;;;4995263;28;46019;-65
2022/09/13 07:59:59;;;;;;;;;3.00;3.00;;;;;;;;4997012;28;45442;-65
2022/09/13 08:02:24;;;;;;;;;4.75;4.75;;;;;;;;4996925;28;45566;-62
2022/09/13 08:04:49;;;;;;;;;6.25;6.25;;;;;;;;4999044;28;46876;-70
2022/09/13 08:07:15;;;;;;;;;6.25;5.00;;;;;;;;4998585;28;45394;-71
2022/09/13 08:09:40;;;;;;;;;5.25;4.25;;;;;;;;4994130;28;45719;-72
2022/09/13 08:12:05;;;;;;;;;6.67;6.33;;;;;;;;4989763;28;45411;-63
2022/09/13 08:14:30;;;;;;;;;4.67;4.67;;;;;;;;5002398;28;45616;-72
2022/09/13 08:16:55;;;;;;;;;5.00;5.00;;;;;;;;4997191;28;45676;-73
2022/09/13 08:19:21;;;;;;;;;5.00;4.00;;;;;;;;4997346;28;45687;-72
2022/09/13 08:21:46;;;;;;;;;6.00;5.00;;;;;;;;4995437;28;45518;-72
2022/09/13 08:24:13;;;;;;;;;7.00;6.00;;;;;;;;4996883;28;45446;-73
2022/09/13 08:26:38;;;;;;;;;5.25;4.00;;;;;;;;4991853;28;45639;-73
2022/09/13 08:29:04;;;;;;;;;7.00;6.00;;;;;;;;4998234;28;46169;-73
2022/09/13 08:31:30;;;;;;;;;5.67;5.67;;;;;;;;4994805;28;45543;-72
2022/09/13 08:33:56;;;;;;;;;5.67;5.67;;;;;;;;4996045;28;45656;-72
2022/09/13 08:36:22;;;;;;;;;6.67;5.00;;;;;;;;4994602;28;45449;-62
2022/09/13 08:38:49;;;;;;;;;6.00;6.00;;;;;;;;4997086;28;47170;-71
2022/09/13 08:41:23;;;;;;;;;8.67;8.67;;;;;;;;4987510;28;45309;-72
2022/09/13 08:43:54;;;;;;;;;8.33;8.33;;;;;;;;5002280;28;45278;-72
2022/09/13 08:46:24;;;;;;;;;8.33;8.33;;;;;;;;4997149;28;45444;-73
2022/09/13 08:48:52;;;;;;;;;7.00;7.00;;;;;;;;4993548;28;45515;-62
2022/09/13 08:51:27;;;;;;;;;12.00;10.00;;;;;;;;4989867;28;45346;-71
2022/09/13 08:53:53;;;;;;;;;15.67;11.33;;;;;;;;4999752;28;45504;-70
2022/09/13 08:56:21;;;;;;;;;13.00;9.00;;;;;;;;4999320;28;45381;-70
2022/09/13 08:59:05;;;;;;;;;9.00;8.33;;;;;;;;4989222;28;46227;-71
2022/09/13 09:01:36;;;;;;;;;7.25;6.00;;;;;;;;4993767;28;45388;-71
2022/09/13 09:04:02;;;;;;;;;9.67;7.67;;;;;;;;4996702;28;45470;-71
2022/09/13 09:06:28;;;;;;;;;8.67;7.33;;;;;;;;4993815;28;46506;-71
2022/09/13 09:08:58;;;;;;;;;4.00;4.00;;;;;;;;4995776;28;46504;-71
2022/09/13 09:11:42;;;;;;;;;8.50;6.00;;;;;;;;4992296;28;45474;-71
2022/09/13 09:14:14;;;;;;;;;9.00;7.75;;;;;;;;4991707;28;45511;-72
2022/09/13 09:16:39;;;;;;;;;6.00;6.00;;;;;;;;4997972;28;45377;-72
2022/09/13 09:19:15;;;;;;;;;8.00;5.00;;;;;;;;4998233;28;46037;-72
2022/09/13 09:21:41;;;;;;;;;7.25;7.25;;;;;;;;4996486;28;45518;-71
2022/09/13 09:24:14;;;;;;;;;5.25;4.00;;;;;;;;4997079;28;45336;-72
2022/09/13 09:26:39;;;;;;;;;4.00;4.00;;;;;;;;5002219;28;45392;-71
2022/09/13 09:29:19;;;;;;;;;4.25;4.25;;;;;;;;4993607;28;47108;-71
2022/09/13 09:31:44;;;;;;;;;4.00;4.00;;;;;;;;4997555;28;45523;-72
2022/09/13 09:34:21;;;;;;;;;4.50;3.00;;;;;;;;4997448;28;45562;-71
2022/09/13 09:36:53;;;;;;;;;7.50;3.75;;;;;;;;4999621;28;45913;-72
2022/09/13 09:39:18;;;;;;;;;2.50;2.50;;;;;;;;5003662;28;46118;-71
2022/09/13 09:41:44;;;;;;;;;8.00;6.67;;;;;;;;5000655;28;45400;-72
2022/09/13 09:44:15;;;;;;;;;6.50;5.50;;;;;;;;4999088;28;45258;-72
2022/09/13 09:46:41;;;;;;;;;6.25;4.25;;;;;;;;4997243;28;45484;-72
2022/09/13 09:52:01;;;;;;;;;8.33;6.00;;;;;;;;4997177;28;45362;-72
2022/09/13 09:54:28;;;;;;;;;10.33;7.33;;;;;;;;5001263;28;45154;-71
2022/09/13 09:56:54;;;;;;;;;9.33;6.33;;;;;;;;4996412;28;45530;-71
2022/09/13 09:59:32;;;;;;;;;6.25;4.25;;;;;;;;4996004;28;47132;-62
2022/09/13 10:02:03;;;;;;;;;3.00;3.00;;;;;;;;4997506;28;45415;-63
2022/09/13 10:04:28;;;;;;;;;5.25;3.00;;;;;;;;4991616;28;45519;-63
2022/09/13 10:07:08;;;;;;;;;5.00;4.00;;;;;;;;4996062;28;45381;-63
2022/09/13 10:09:36;;;;;;;;;5.00;5.00;;;;;;;;4989129;28;46500;-62
2022/09/13 10:12:01;;;;;;;;;6.75;5.00;;;;;;;;4995898;28;45396;-62
2022/09/13 10:14:46;;;;;;;;;4.25;4.25;;;;;;;;4997369;28;45323;-62
2022/09/13 10:17:23;;;;;;;;;4.50;4.25;;;;;;;;4999092;28;45706;-62
2022/09/13 10:20:00;;;;;;;;;4.25;4.25;;;;;;;;4994433;28;45446;-63
2022/09/13 10:22:25;;;;;;;;;3.75;3.75;;;;;;;;4997404;28;45526;-63
2022/09/13 10:24:51;;;;;;;;;4.25;3.25;;;;;;;;4998887;28;45289;-63
2022/09/13 10:27:33;;;;;;;;;8.75;5.00;;;;;;;;5000728;28;45488;-63
2022/09/13 10:30:00;;;;;;;;;5.33;5.00;;;;;;;;5000162;28;45430;-62
2022/09/13 10:32:27;;;;;;;;;7.25;6.00;;;;;;;;4996951;28;45465;-63
2022/09/13 10:34:53;;;;;;;;;7.25;5.75;;;;;;;;5000873;28;45382;-62
2022/09/13 10:37:21;;;;;;;;;6.00;5.75;;;;;;;;4999061;28;45430;-63
2022/09/13 10:40:08;;;;;;;;;7.50;6.00;;;;;;;;4997565;28;47529;-62
2022/09/13 10:42:34;;;;;;;;;9.75;6.75;;;;;;;;4996225;28;45238;-63
2022/09/13 10:44:59;;;;;;;;;7.50;6.00;;;;;;;;4997454;28;45473;-63
2022/09/13 10:47:38;;;;;;;;;7.00;6.50;;;;;;;;4997707;28;45289;-63
2022/09/13 10:50:15;;;;;;;;;8.00;7.50;;;;;;;;4996440;28;45578;-63
2022/09/13 10:52:42;;;;;;;;;7.50;6.25;;;;;;;;4997890;28;45437;-63
2022/09/13 10:55:19;;;;;;;;;6.00;6.00;;;;;;;;4998591;28;45433;-64
2022/09/13 10:57:46;;;;;;;;;4.00;3.50;;;;;;;;4993681;28;45343;-63
2022/09/13 11:00:12;;;;;;;;;5.50;5.00;;;;;;;;4994052;28;46082;-63
2022/09/13 11:02:37;;;;;;;;;7.00;7.00;;;;;;;;4985343;28;45630;-63
2022/09/13 11:05:10;;;;;;;;;5.40;4.00;;;;;;;;5002859;28;45624;-73
2022/09/13 11:07:41;;;;;;;;;6.75;6.75;;;;;;;;5000295;28;45344;-74
2022/09/13 11:10:09;;;;;;;;;8.75;8.75;;;;;;;;4999096;28;45337;-72
2022/09/13 11:12:34;;;;;;;;;5.75;5.75;;;;;;;;4998293;28;45236;-71
2022/09/13 11:15:06;;;;;;;;;6.25;6.25;;;;;;;;4995989;28;45585;-67
2022/09/13 11:17:46;;;;;;;;;5.00;5.00;;;;;;;;4999701;28;45606;-69
2022/09/13 11:20:15;;;;;;;;;7.00;6.00;;;;;;;;5000580;28;45431;-63
2022/09/13 11:22:56;;;;;;;;;7.50;6.75;;;;;;;;5000437;28;45414;-63
2022/09/13 11:25:27;;;;;;;;;5.00;4.75;;;;;;;;4999161;28;45727;-64
2022/09/13 11:28:11;;;;;;;;;5.00;5.00;;;;;;;;5000601;28;45638;-69
2022/09/13 11:30:59;;;;;;;;;5.00;5.00;;;;;;;;5000303;28;45242;-62
2022/09/13 11:33:46;;;;;;;;;7.00;4.25;;;;;;;;4980062;28;45438;-63
2022/09/13 11:36:11;;;;;;;;;4.00;4.00;;;;;;;;4998908;28;45450;-63
2022/09/13 11:38:57;;;;;;;;;4.25;4.25;;;;;;;;5001060;28;45595;-70
2022/09/13 11:41:26;;;;;;;;;4.75;4.00;;;;;;;;4998210;28;47159;-67
2022/09/13 11:44:10;;;;;;;;;2.75;2.75;;;;;;;;4997886;28;45616;-65
2022/09/13 11:46:41;;;;;;;;;4.50;4.00;;;;;;;;5000560;28;45328;-65
2022/09/13 11:49:25;;;;;;;;;5.00;4.00;;;;;;;;4997592;28;45570;-63
2022/09/13 11:51:59;;;;;;;;;5.00;4.00;;;;;;;;4999376;28;46795;-70
2022/09/13 11:54:32;;;;;;;;;5.00;5.00;;;;;;;;4994381;28;45651;-64
2022/09/13 11:57:05;;;;;;;;;8.00;5.00;;;;;;;;5000533;28;45285;-64
2022/09/13 11:59:30;;;;;;;;;4.75;3.25;;;;;;;;4997401;28;45449;-71
2022/09/13 12:01:59;;;;;;;;;3.20;3.20;;;;;;;;4997226;28;45317;-66
2022/09/13 12:04:32;;;;;;;;;3.75;3.75;;;;;;;;4997615;28;45808;-63
2022/09/13 12:07:01;;;;;;;;;7.00;4.00;;;;;;;;4998651;28;45303;-63
2022/09/13 12:09:30;;;;;;;;;4.50;3.75;;;;;;;;4994450;28;45432;-70
2022/09/13 12:12:25;;;;;;;;;5.25;5.25;;;;;;;;4996974;28;46508;-72
2022/09/13 12:15:06;;;;;;;;;5.50;5.00;;;;;;;;4991047;28;45801;-70
2022/09/13 12:17:42;;;;;;;;;3.50;3.50;;;;;;;;4999256;28;45407;-64
2022/09/13 12:20:14;;;;;;;;;4.25;4.00;;;;;;;;4999294;28;45661;-67
2022/09/13 12:22:40;;;;;;;;;5.00;5.00;;;;;;;;4998510;28;46420;-63
2022/09/13 12:25:14;;;;;;;;;4.50;4.25;;;;;;;;5000680;28;45407;-63
2022/09/13 12:28:01;;;;;;;;;3.25;3.25;;;;;;;;4995518;28;45478;-68
2022/09/13 12:30:41;;;;;;;;;5.75;5.00;;;;;;;;5005919;28;45489;-67
2022/09/13 12:33:06;;;;;;;;;8.00;4.75;;;;;;;;5013984;28;45315;-63
2022/09/13 12:35:39;;;;;;;;;4.75;4.00;;;;;;;;4998501;28;45317;-70
2022/09/13 12:38:21;;;;;;;;;3.75;3.75;;;;;;;;4998553;28;45406;-63
2022/09/13 12:40:49;;;;;;;;;4.75;4.00;;;;;;;;4989901;28;45807;-65
2022/09/13 12:43:27;;;;;;;;;4.25;4.25;;;;;;;;4997111;28;45426;-70
2022/09/13 12:46:09;;;;;;;;;2.75;2.75;;;;;;;;4998578;28;45510;-69
2022/09/13 12:48:40;;;;;;;;;4.00;4.00;;;;;;;;4998771;28;45665;-70
2022/09/13 12:51:18;;;;;;;;;5.75;4.00;;;;;;;;4998859;28;45707;-70
2022/09/13 12:53:43;;;;;;;;;4.00;4.00;;;;;;;;4995463;28;46198;-62
2022/09/13 12:56:08;;;;;;;;;3.50;3.50;;;;;;;;4998606;28;45438;-64
2022/09/13 12:58:33;;;;;;;;;4.40;4.40;;;;;;;;4998322;28;45668;-63
2022/09/13 13:01:20;;;;;;;;;5.80;4.00;;;;;;;;4998514;28;45422;-63
2022/09/13 13:03:54;;;;;;;;;1.25;1.00;;;;;;;;4997340;28;46108;-63
2022/09/13 13:06:28;;;;;;;;;4.75;4.75;;;;;;;;4996921;28;45471;-71
2022/09/13 13:08:57;;;;;;;;;3.50;3.25;;;;;;;;4997514;28;45570;-69
2022/09/13 13:11:25;;;;;;;;;4.25;4.25;;;;;;;;4996144;28;45288;-71
2022/09/13 13:13:56;;;;;;;;;3.75;3.75;;;;;;;;4997713;28;46255;-66
2022/09/13 13:16:30;;;;;;;;;5.50;4.25;;;;;;;;4997226;28;45327;-63
2022/09/13 13:18:59;;;;;;;;;3.50;3.50;;;;;;;;4998706;28;45577;-63
2022/09/13 13:21:30;;;;;;;;;5.50;4.50;;;;;;;;4998173;28;45577;-70
2022/09/13 13:24:13;;;;;;;;;5.00;5.00;;;;;;;;4998461;28;46960;-70
2022/09/13 13:26:43;;;;;;;;;3.00;2.25;;;;;;;;4993478;28;45700;-65
2022/09/13 13:29:28;;;;;;;;;4.25;4.25;;;;;;;;4991354;28;45634;-64
2022/09/13 13:31:56;;;;;;;;;7.00;4.00;;;;;;;;4996889;28;45490;-64
2022/09/13 13:34:22;;;;;;;;;2.50;2.25;;;;;;;;4997977;28;45331;-63
2022/09/13 13:36:51;;;;;;;;;5.75;4.00;;;;;;;;4997662;28;45463;-63
2022/09/13 13:39:23;;;;;;;;;4.00;4.00;;;;;;;;4998081;28;45438;-70
2022/09/13 13:41:53;;;;;;;;;1.25;1.25;;;;;;;;4998021;28;45427;-64
2022/09/13 13:44:18;;;;;;;;;5.50;5.50;;;;;;;;4997569;28;46237;-63
2022/09/13 13:46:43;;;;;;;;;2.75;2.75;;;;;;;;4998006;28;45249;-66
2022/09/13 13:49:27;;;;;;;;;4.75;4.50;;;;;;;;4997468;28;45163;-64
2022/09/13 13:52:04;;;;;;;;;3.75;3.75;;;;;;;;4997998;28;45495;-64
2022/09/13 13:54:50;;;;;;;;;6.50;5.00;;;;;;;;4997762;28;45465;-63
2022/09/13 13:57:27;;;;;;;;;3.00;3.00;;;;;;;;4998147;28;45548;-64
2022/09/13 14:00:04;;;;;;;;;5.50;4.00;;;;;;;;4997630;28;45550;-64
2022/09/13 14:02:35;;;;;;;;;5.00;4.75;;;;;;;;4995764;28;45523;-70
2022/09/13 14:05:19;;;;;;;;;5.50;5.25;;;;;;;;5000153;28;45495;-63
2022/09/13 14:07:53;;;;;;;;;3.25;3.25;;;;;;;;4995258;28;45214;-68
2022/09/13 14:10:25;;;;;;;;;5.50;5.00;;;;;;;;4994927;28;45500;-63
2022/09/13 14:12:53;;;;;;;;;5.00;3.75;;;;;;;;4997907;28;45430;-63
2022/09/13 14:15:29;;;;;;;;;5.25;4.75;;;;;;;;4996441;28;46118;-63
2022/09/13 14:17:55;;;;;;;;;5.50;5.00;;;;;;;;4996699;28;45499;-63
2022/09/13 14:20:20;;;;;;;;;5.50;5.50;;;;;;;;4997557;28;46282;-63
2022/09/13 14:22:46;;;;;;;;;3.50;3.50;;;;;;;;5000617;28;45392;-71
2022/09/13 14:25:12;;;;;;;;;5.00;5.00;;;;;;;;5000635;28;46263;-70
2022/09/13 14:27:38;;;;;;;;;3.75;3.75;;;;;;;;5000894;28;45408;-64
2022/09/13 14:30:16;;;;;;;;;4.75;4.75;;;;;;;;4999646;28;45552;-62
2022/09/13 14:32:43;;;;;;;;;0.00;0.00;;;;;;;;5001171;28;45258;-63
2022/09/13 14:35:26;;;;;;;;;2.75;2.75;;;;;;;;5000897;28;46142;-63
2022/09/13 14:37:51;;;;;;;;;4.75;3.75;;;;;;;;5000269;28;45356;-69
2022/09/13 14:40:21;;;;;;;;;4.25;4.25;;;;;;;;4999977;28;46109;-63
2022/09/13 14:42:48;;;;;;;;;4.25;4.25;;;;;;;;5000489;28;45372;-69
2022/09/13 14:45:13;;;;;;;;;7.00;5.00;;;;;;;;5000797;28;46925;-69
2022/09/13 14:48:01;;;;;;;;;4.00;4.00;;;;;;;;4996503;28;45535;-70
2022/09/13 14:50:29;;;;;;;;;3.00;2.25;;;;;;;;4996349;28;45663;-64
2022/09/13 14:53:05;;;;;;;;;4.00;4.00;;;;;;;;5000453;28;45238;-70
2022/09/13 14:55:40;;;;;;;;;4.00;4.00;;;;;;;;4993563;28;47388;-69
2022/09/13 14:58:11;;;;;;;;;3.25;3.25;;;;;;;;4999725;28;45969;-63
2022/09/13 15:00:46;;;;;;;;;3.25;3.25;;;;;;;;4999835;28;45501;-63
2022/09/13 15:03:14;;;;;;;;;10.50;5.00;;;;;;;;4993731;28;45543;-63
2022/09/13 15:05:40;;;;;;;;;4.00;4.00;;;;;;;;4994287;28;47422;-63
2022/09/13 15:08:24;;;;;;;;;6.25;4.75;;;;;;;;4998768;28;45278;-63
2022/09/13 15:10:49;;;;;;;;;4.00;4.00;;;;;;;;5000683;28;45360;-63
2022/09/13 15:13:15;;;;;;;;;6.75;4.00;;;;;;;;4999726;28;45742;-63
2022/09/13 15:15:41;;;;;;;;;3.75;3.75;;;;;;;;5000808;28;45487;-63
2022/09/13 15:18:06;;;;;;;;;4.25;4.25;;;;;;;;4995132;28;45295;-64
2022/09/13 15:20:52;;;;;;;;;4.50;4.50;;;;;;;;4999855;28;45348;-63
2022/09/13 15:23:19;;;;;;;;;5.50;4.50;;;;;;;;5004425;28;45411;-64
2022/09/13 15:26:00;;;;;;;;;3.00;3.00;;;;;;;;5000165;28;45401;-64
2022/09/13 15:28:27;;;;;;;;;3.75;3.75;;;;;;;;5006354;28;45486;-63
2022/09/13 15:30:52;;;;;;;;;4.75;4.75;;;;;;;;5007238;28;45475;-64
2022/09/13 15:33:22;;;;;;;;;7.00;4.50;;;;;;;;5000344;28;45582;-65
2022/09/13 15:35:48;;;;;;;;;6.67;5.00;;;;;;;;5002377;28;45388;-64
2022/09/13 15:38:24;;;;;;;;;6.00;6.00;;;;;;;;4998429;28;45491;-68
2022/09/13 15:41:01;;;;;;;;;9.00;7.67;;;;;;;;4997549;28;45550;-68
2022/09/13 15:43:26;;;;;;;;;9.33;8.67;;;;;;;;5001692;28;45893;-64
2022/09/13 15:45:51;;;;;;;;;6.50;6.00;;;;;;;;4999611;28;46456;-65
2022/09/13 15:48:27;;;;;;;;;7.00;5.75;;;;;;;;4996736;28;45408;-63
2022/09/13 15:51:13;;;;;;;;;5.25;5.25;;;;;;;;4997188;28;45626;-63
2022/09/13 15:53:39;;;;;;;;;7.00;4.25;;;;;;;;4993123;28;45516;-64
2022/09/13 15:56:05;;;;;;;;;7.00;4.75;;;;;;;;4995278;28;46430;-64
2022/09/13 15:58:31;;;;;;;;;5.25;5.25;;;;;;;;4997468;28;45325;-63
2022/09/13 16:00:56;;;;;;;;;5.75;5.75;;;;;;;;4999385;28;45472;-63
2022/09/13 16:03:21;;;;;;;;;5.75;5.75;;;;;;;;4998903;28;45458;-64
2022/09/13 16:05:46;;;;;;;;;7.50;6.00;;;;;;;;4996143;28;46268;-64
2022/09/13 16:08:11;;;;;;;;;6.25;5.00;;;;;;;;4996384;28;45329;-63
2022/09/13 16:10:37;;;;;;;;;7.75;5.50;;;;;;;;4999701;28;45688;-64
2022/09/13 16:13:02;;;;;;;;;6.00;5.00;;;;;;;;4991531;28;45675;-64
2022/09/13 16:15:28;;;;;;;;;6.75;5.00;;;;;;;;4995273;28;45249;-63
2022/09/13 16:17:53;;;;;;;;;3.00;2.25;;;;;;;;4997724;28;45347;-64
2022/09/13 16:20:19;;;;;;;;;10.00;6.25;;;;;;;;4997721;28;45705;-64
2022/09/13 16:22:44;;;;;;;;;14.00;13.25;;;;;;;;4998663;28;45440;-63
2022/09/13 16:25:11;;;;;;;;;16.67;14.33;;;;;;;;4998231;28;46190;-65
2022/09/13 16:27:37;;;;;;;;;31.33;29.00;;;;;;;;4996987;28;45490;-64
2022/09/13 16:30:02;;;;;;;;;26.67;22.00;;;;;;;;4999069;28;45360;-64
2022/09/13 16:32:28;;;;;;;;;8.25;7.00;;;;;;;;4998474;28;46608;-64
2022/09/13 16:34:53;;;;;;;;;17.33;15.33;;;;;;;;4998040;28;45307;-64
2022/09/13 16:37:18;;;;;;;;;26.00;24.00;;;;;;;;4989886;28;45622;-64
2022/09/13 16:39:44;;;;;;;;;11.50;10.00;;;;;;;;4993995;28;45682;-63
2022/09/13 16:42:11;;;;;;;;;5.50;5.50;;;;;;;;4990871;28;45496;-62
2022/09/13 16:44:36;;;;;;;;;6.00;6.00;;;;;;;;4996302;28;45487;-64
2022/09/13 16:47:01;;;;;;;;;7.75;7.75;;;;;;;;4980877;28;45543;-63
2022/09/13 16:49:26;;;;;;;;;7.50;6.25;;;;;;;;5008290;28;46982;-64
2022/09/13 16:51:52;;;;;;;;;10.50;9.25;;;;;;;;4996078;28;45488;-64
2022/09/13 16:54:17;;;;;;;;;8.00;8.00;;;;;;;;4996629;28;46141;-64
2022/09/13 16:56:42;;;;;;;;;8.00;8.00;;;;;;;;4988326;28;46301;-64
2022/09/13 16:59:08;;;;;;;;;6.33;6.33;;;;;;;;4992762;28;45567;-63
2022/09/13 17:01:33;;;;;;;;;7.25;7.00;;;;;;;;4997026;28;45225;-65
2022/09/13 17:03:59;;;;;;;;;4.75;3.00;;;;;;;;5011289;28;47562;-65
2022/09/13 17:06:25;;;;;;;;;7.75;7.00;;;;;;;;4997984;28;45389;-65
2022/09/13 17:08:52;;;;;;;;;8.00;8.00;;;;;;;;4999180;28;45276;-66
2022/09/13 17:11:19;;;;;;;;;8.50;6.25;;;;;;;;4998994;28;45706;-65
2022/09/13 17:13:44;;;;;;;;;9.25;7.75;;;;;;;;4997928;28;45390;-65
2022/09/13 17:16:26;;;;;;;;;7.00;7.00;;;;;;;;4991550;28;45752;-64
2022/09/13 17:18:52;;;;;;;;;8.25;8.25;;;;;;;;4987997;28;45534;-66
2022/09/13 17:21:18;;;;;;;;;7.67;7.67;;;;;;;;4999036;28;45382;-64
2022/09/13 17:23:43;;;;;;;;;10.00;8.50;;;;;;;;4996976;28;45532;-64
2022/09/13 17:26:08;;;;;;;;;8.00;7.00;;;;;;;;4986714;28;45335;-64
2022/09/13 17:28:35;;;;;;;;;12.00;10.33;;;;;;;;4988736;28;45701;-64
2022/09/13 17:31:00;;;;;;;;;7.00;5.67;;;;;;;;4993530;28;45530;-63
2022/09/13 17:33:26;;;;;;;;;8.50;8.50;;;;;;;;4998310;28;45439;-64
2022/09/13 17:36:01;;;;;;;;;9.25;8.00;;;;;;;;4997539;28;45371;-65
2022/09/13 17:38:27;;;;;;;;;9.00;9.00;;;;;;;;5012734;28;45809;-64
2022/09/13 17:41:03;;;;;;;;;7.33;7.33;;;;;;;;4994564;28;45205;-65
2022/09/13 17:43:28;;;;;;;;;7.67;7.67;;;;;;;;4995452;28;47123;-64
2022/09/13 17:45:54;;;;;;;;;9.67;9.67;;;;;;;;4993259;28;45584;-64
2022/09/13 17:48:19;;;;;;;;;12.33;12.33;;;;;;;;4997711;28;45689;-64
2022/09/13 17:50:44;;;;;;;;;15.67;12.67;;;;;;;;4998869;28;45223;-64
2022/09/13 17:53:11;;;;;;;;;14.00;11.67;;;;;;;;5000369;28;46982;-64
2022/09/13 17:55:44;;;;;;;;;9.67;8.67;;;;;;;;5000228;28;45483;-65
2022/09/13 17:58:09;;;;;;;;;9.33;9.33;;;;;;;;5007622;28;45579;-65
2022/09/13 18:00:35;;;;;;;;;7.67;6.00;;;;;;;;4999493;28;45291;-66
2022/09/13 18:03:00;;;;;;;;;11.33;6.67;;;;;;;;5006030;28;46250;-64
2022/09/13 18:05:26;;;;;;;;;6.75;6.75;;;;;;;;4999081;28;45418;-63
2022/09/13 18:07:51;;;;;;;;;9.25;8.50;;;;;;;;5005627;28;45526;-64
2022/09/13 18:10:17;;;;;;;;;13.00;11.00;;;;;;;;5003977;28;45498;-64
2022/09/13 18:12:42;;;;;;;;;11.33;9.00;;;;;;;;4996372;28;45329;-64
2022/09/13 18:15:07;;;;;;;;;12.25;10.00;;;;;;;;4998236;28;45355;-64
2022/09/13 18:17:33;;;;;;;;;12.25;9.00;;;;;;;;4992298;28;45405;-64
2022/09/13 18:19:58;;;;;;;;;12.00;8.75;;;;;;;;4997598;28;44759;-65
2022/09/13 18:22:23;;;;;;;;;9.75;6.50;;;;;;;;5001151;28;46198;-63
2022/09/13 18:24:49;;;;;;;;;9.00;9.00;;;;;;;;5000460;28;45416;-64
2022/09/13 18:27:14;;;;;;;;;11.25;9.25;;;;;;;;4999324;28;45448;-63
2022/09/13 18:29:39;;;;;;;;;11.00;11.00;;;;;;;;5007411;28;45386;-64
2022/09/13 18:32:05;;;;;;;;;8.25;8.25;;;;;;;;4999956;28;45834;-64
2022/09/13 18:34:30;;;;;;;;;10.00;10.00;;;;;;;;5000257;28;45419;-65
2022/09/13 18:36:55;;;;;;;;;9.33;7.33;;;;;;;;4997614;28;45447;-62
2022/09/13 18:39:21;;;;;;;;;8.33;8.00;;;;;;;;4995055;28;45419;-63
2022/09/13 18:41:47;;;;;;;;;9.33;9.33;;;;;;;;4997503;28;45965;-64
2022/09/13 18:44:13;;;;;;;;;12.67;11.00;;;;;;;;4999670;28;45487;-63
2022/09/13 18:46:38;;;;;;;;;10.33;9.00;;;;;;;;4998264;28;45873;-64
2022/09/13 18:49:04;;;;;;;;;13.33;11.67;;;;;;;;4996225;28;45383;-64
2022/09/13 18:51:30;;;;;;;;;10.67;10.67;;;;;;;;4993867;28;46544;-65
2022/09/13 18:53:56;;;;;;;;;10.67;10.00;;;;;;;;4989678;28;45559;-65
2022/09/13 18:56:22;;;;;;;;;8.33;8.33;;;;;;;;4996476;28;45535;-64
2022/09/13 18:58:48;;;;;;;;;8.33;8.33;;;;;;;;4992890;28;45453;-65
2022/09/13 19:01:17;;;;;;;;;10.67;10.00;;;;;;;;4989319;28;47052;-64
2022/09/13 19:04:02;;;;;;;;;8.75;7.50;;;;;;;;4993284;28;45654;-64
2022/09/13 19:06:33;;;;;;;;;10.00;9.00;;;;;;;;4998641;28;45663;-63
2022/09/13 19:08:58;;;;;;;;;11.00;9.33;;;;;;;;4999346;28;45472;-65
2022/09/13 19:11:25;;;;;;;;;11.00;9.00;;;;;;;;4998169;28;45407;-63
2022/09/13 19:13:50;;;;;;;;;14.00;12.00;;;;;;;;5000073;28;45435;-63
2022/09/13 19:16:17;;;;;;;;;11.33;9.67;;;;;;;;5002326;28;45718;-63
2022/09/13 19:18:43;;;;;;;;;13.67;12.00;;;;;;;;5002028;28;45518;-63
2022/09/13 19:21:16;;;;;;;;;14.33;14.33;;;;;;;;4997692;28;46206;-62
2022/09/13 19:23:42;;;;;;;;;12.33;9.67;;;;;;;;4995474;28;45330;-63